Terminal Aerodrome Forecast
Issued by NWS Wilmington, OH

Current Version | Previous Version | Graphics & Text | Print | Product List | Glossary On
Versions: 1 2 3 4 5 6 7 8 9 10 11 12 13 14 15 16 17 18 19 20 21 22 23 24 25 26
000
FTUS41 KILN 250316 AAB
TAFCMH
TAF AMD
KCMH 250316Z 2503/2524 20010KT 6SM -SHRA VCTS SCT025 OVC040CB
      TEMPO 2503/2504 26025G40KT 4SM TSRA OVC025CB
     FM250400 23010KT 6SM -SHRA VCTS OVC060CB
     FM250800 26012G22KT P6SM VCSH OVC045
     FM251000 27014G24KT P6SM OVC050
     FM251500 26017G27KT P6SM OVC025
     FM252000 26017G27KT P6SM OVC035=

USA.gov is the U.S. government's official web portal to all federal, state and local government web resources and services.